Urdampilleta, Argentina
Current Conditions -  °F | °C
As of 1:00 AM on Monday 20 Oct 2014 (Local Time) from SAEZ Reporting Station
Clear Clear  
Wind Chill: 11°   Ceiling: Unl
Heat Index: 11°   Visibility: 6mi
Dew Point:   Wind: 2mph
Humidity: 82%   Direction: 140°SE
Pressure: 30.12"   Gusts: NA
Location:  36.43°S, 61.43°W
Report Text: SAEZ 200400Z 14002KT CAVOK 11/08 Q1020
Loading
Personal Weather Stations






























Interactive Weather Map
Tropical Storm Tracking
New forecast layout! Learn more

10-Day Weather Forecast

Advertisements
Track Severe Weather on mobile